createdAt,value
2018-12-13T00:02:12.684Z,82.50
2018-12-13T00:04:43.827Z,83.03
2018-12-13T00:07:17.368Z,82.21
2018-12-13T00:09:48.848Z,82.36
2018-12-13T00:12:19.923Z,83.23
2018-12-13T00:14:49.005Z,82.79
2018-12-13T00:17:20.054Z,83.50
2018-12-13T00:19:53.359Z,82.88
2018-12-13T00:22:24.937Z,82.98
2018-12-13T00:24:55.982Z,82.80
2018-12-13T00:27:27.031Z,83.08
2018-12-13T00:29:57.787Z,83.44
2018-12-13T00:32:29.059Z,83.42
2018-12-13T00:34:59.951Z,83.14
2018-12-13T00:37:31.090Z,83.58
2018-12-13T00:40:02.143Z,83.63
2018-12-13T00:42:32.933Z,83.17
2018-12-13T00:45:04.964Z,83.95
2018-12-13T00:47:35.979Z,83.82
2018-12-13T00:50:07.239Z,83.72
2018-12-13T00:52:38.806Z,83.47
2018-12-13T00:55:10.029Z,84.35
2018-12-13T00:57:40.983Z,84.19
2018-12-13T01:00:12.225Z,84.23
2018-12-13T01:02:44.011Z,84.26
2018-12-13T01:05:14.949Z,84.24
2018-12-13T01:07:45.808Z,83.95
2018-12-13T01:10:17.071Z,84.41
2018-12-13T01:12:48.004Z,84.78
2018-12-13T01:15:18.724Z,84.37
2018-12-13T01:17:49.683Z,85.25
2018-12-13T01:20:20.698Z,85.32
2018-12-13T01:22:52.039Z,86.72
2018-12-13T01:25:23.391Z,86.44
2018-12-13T01:27:54.237Z,86.21
2018-12-13T01:30:27.667Z,86.76
2018-12-13T01:32:58.933Z,87.36
2018-12-13T01:35:30.267Z,87.16
2018-12-13T01:38:01.049Z,87.33
2018-12-13T01:40:32.127Z,87.62
2018-12-13T01:43:05.719Z,87.24
2018-12-13T01:45:37.003Z,86.72
2018-12-13T01:48:08.211Z,86.62
2018-12-13T01:50:38.879Z,86.60
2018-12-13T01:53:09.663Z,88.07
2018-12-13T01:55:40.671Z,87.85
2018-12-13T01:58:11.470Z,87.29
2018-12-13T02:00:42.751Z,86.28
2018-12-13T02:03:13.904Z,87.07
2018-12-13T02:05:44.806Z,86.51
2018-12-13T02:08:18.199Z,86.46
2018-12-13T02:10:47.607Z,86.61
2018-12-13T02:13:21.859Z,86.62
2018-12-13T02:15:53.322Z,86.44
2018-12-13T02:18:24.919Z,87.66
2018-12-13T02:20:56.044Z,87.03
2018-12-13T02:23:29.542Z,86.47
2018-12-13T02:26:00.935Z,86.94
2018-12-13T02:28:31.841Z,86.10
2018-12-13T02:31:02.953Z,85.78
2018-12-13T02:33:34.083Z,85.80
2018-12-13T02:36:05.260Z,85.73
2018-12-13T02:38:36.072Z,86.01
2018-12-13T02:41:09.324Z,86.13
2018-12-13T02:43:40.313Z,85.64
2018-12-13T02:46:11.165Z,86.16
2018-12-13T02:48:42.383Z,86.00
2018-12-13T02:51:16.095Z,86.00
2018-12-13T02:53:47.647Z,86.11
2018-12-13T02:56:21.964Z,86.19
2018-12-13T02:58:51.663Z,86.42
2018-12-13T03:01:23.366Z,86.56
2018-12-13T03:03:55.407Z,86.54
2018-12-13T03:06:26.376Z,86.65
2018-12-13T03:08:58.092Z,86.85
2018-12-13T03:11:28.937Z,86.81
2018-12-13T03:13:59.890Z,86.78
2018-12-13T03:16:30.758Z,86.56
2018-12-13T03:19:04.445Z,87.05
2018-12-13T03:21:35.907Z,86.94
2018-12-13T03:24:07.219Z,87.23
2018-12-13T03:26:38.194Z,88.29
2018-12-13T03:29:11.786Z,87.68
2018-12-13T03:31:42.736Z,87.98
2018-12-13T03:34:16.145Z,87.91
2018-12-13T03:36:47.614Z,88.27
2018-12-13T03:39:18.691Z,87.71
2018-12-13T03:41:49.961Z,87.97
2018-12-13T03:44:23.651Z,88.29
2018-12-13T03:46:55.364Z,88.09
2018-12-13T03:49:26.973Z,87.91
2018-12-13T03:51:58.082Z,88.46
2018-12-13T03:54:29.137Z,88.98
2018-12-13T03:57:02.892Z,88.47
2018-12-13T03:59:34.203Z,88.83
2018-12-13T04:02:05.198Z,88.26
2018-12-13T04:04:36.307Z,88.29
2018-12-13T04:07:09.718Z,87.58
2018-12-13T04:09:41.228Z,87.83
2018-12-13T04:12:14.643Z,87.60
2018-12-13T04:14:46.276Z,87.60
2018-12-13T04:17:17.223Z,87.93
2018-12-13T04:19:48.171Z,87.82
2018-12-13T04:22:19.237Z,88.38
2018-12-13T04:24:50.877Z,87.52
2018-12-13T04:27:21.908Z,88.03
2018-12-13T04:29:52.855Z,87.84
2018-12-13T04:32:24.183Z,87.87
2018-12-13T04:34:57.460Z,88.20
2018-12-13T04:37:35.156Z,88.58
2018-12-13T04:40:01.919Z,87.53
2018-12-13T04:42:35.597Z,88.27
2018-12-13T04:45:09.483Z,88.04
2018-12-13T04:47:44.917Z,87.95
2018-12-13T04:50:18.551Z,87.95
2018-12-13T04:52:50.039Z,88.21
2018-12-13T04:55:23.415Z,87.79
2018-12-13T04:57:52.639Z,87.84
2018-12-13T05:00:23.839Z,87.80
2018-12-13T05:02:54.903Z,87.54
2018-12-13T05:05:28.472Z,87.39
2018-12-13T05:07:59.932Z,87.59
2018-12-13T05:10:49.998Z,88.10
2018-12-13T05:13:21.795Z,88.13
2018-12-13T05:15:53.287Z,88.23
2018-12-13T05:18:26.727Z,88.19
2018-12-13T05:20:58.033Z,87.81
2018-12-13T05:23:31.619Z,88.29
2018-12-13T05:26:03.272Z,88.36
2018-12-13T05:28:34.291Z,88.13
2018-12-13T05:31:05.407Z,88.20
2018-12-13T05:33:36.435Z,88.54
2018-12-13T05:36:07.529Z,88.27
2018-12-13T05:38:38.599Z,87.83
2018-12-13T05:41:09.687Z,87.65
2018-12-13T05:43:45.438Z,87.37
2018-12-13T05:46:18.884Z,87.54
2018-12-13T05:48:51.152Z,88.31
2018-12-13T05:51:25.095Z,88.04
2018-12-13T05:53:54.373Z,88.27
2018-12-13T05:56:25.463Z,88.72
2018-12-13T05:58:56.402Z,88.04
2018-12-13T06:01:30.053Z,88.64
2018-12-13T06:04:01.549Z,88.46
2018-12-13T06:06:32.332Z,88.00
2018-12-13T06:09:06.006Z,87.56
2018-12-13T06:11:37.398Z,88.28
2018-12-13T06:14:08.381Z,87.69
2018-12-13T06:16:39.391Z,87.86
2018-12-13T06:19:10.577Z,87.76
2018-12-13T06:21:42.319Z,87.48
2018-12-13T06:24:13.351Z,88.44
2018-12-13T06:26:44.162Z,87.91
2018-12-13T06:29:15.051Z,88.15
2018-12-13T06:31:46.284Z,87.80
2018-12-13T06:34:17.087Z,87.12
2018-12-13T06:36:50.483Z,87.07
2018-12-13T06:39:22.010Z,87.14
2018-12-13T06:41:52.873Z,87.31
2018-12-13T06:44:23.801Z,87.38
2018-12-13T06:46:57.347Z,86.89
2018-12-13T06:49:28.751Z,86.79
2018-12-13T06:52:00.471Z,87.00
2018-12-13T06:54:31.517Z,87.00
2018-12-13T06:57:02.530Z,86.73
2018-12-13T06:59:35.947Z,86.80
2018-12-13T07:02:07.358Z,87.05
2018-12-13T07:04:41.516Z,87.09
2018-12-13T07:07:14.987Z,87.24
2018-12-13T07:09:46.429Z,87.16
2018-12-13T07:12:20.971Z,86.72
2018-12-13T07:14:55.147Z,87.05
2018-12-13T07:17:26.708Z,87.16
2018-12-13T07:20:00.350Z,86.83
2018-12-13T07:22:34.672Z,86.81
2018-12-13T07:25:07.065Z,87.07
2018-12-13T07:27:38.759Z,87.17
2018-12-13T07:30:12.192Z,86.94
2018-12-13T07:32:43.484Z,86.93
2018-12-13T07:35:16.899Z,87.26
2018-12-13T07:37:48.407Z,87.05
2018-12-13T07:40:21.872Z,86.80
2018-12-13T07:42:54.015Z,87.00
2018-12-13T07:45:25.461Z,87.33
2018-12-13T07:47:56.479Z,86.60
2018-12-13T07:50:27.467Z,86.76
2018-12-13T07:52:58.615Z,87.33
2018-12-13T07:55:30.334Z,86.83
2018-12-13T07:58:03.784Z,86.92
2018-12-13T08:00:35.069Z,87.20
2018-12-13T08:03:06.220Z,87.43
2018-12-13T08:05:40.434Z,87.12
2018-12-13T08:08:11.754Z,87.33
2018-12-13T08:10:42.999Z,87.51
2018-12-13T08:13:13.947Z,87.42
2018-12-13T08:15:45.680Z,87.65
2018-12-13T08:18:19.260Z,87.27
2018-12-13T08:20:50.765Z,87.25
2018-12-13T08:23:21.751Z,87.16
2018-12-13T08:25:52.728Z,86.82
2018-12-13T08:28:23.674Z,86.39
2018-12-13T08:30:54.480Z,86.56
2018-12-13T08:33:25.723Z,86.36
2018-12-13T08:35:56.719Z,86.02
2018-12-13T08:38:27.720Z,85.78
2018-12-13T08:40:58.747Z,84.92
2018-12-13T08:43:29.887Z,84.97
2018-12-13T08:46:01.019Z,84.08
2018-12-13T08:48:31.798Z,83.57
2018-12-13T08:51:03.000Z,84.36
2018-12-13T08:53:33.712Z,84.37
2018-12-13T08:56:03.163Z,84.40
2018-12-13T08:58:34.124Z,83.67
2018-12-13T09:01:07.992Z,82.83
2018-12-13T09:03:39.255Z,81.56
2018-12-13T09:06:10.360Z,82.05
2018-12-13T09:08:41.357Z,81.55
2018-12-13T09:11:15.103Z,80.11
2018-12-13T09:13:46.583Z,80.77
2018-12-13T09:16:20.580Z,81.62
2018-12-13T09:18:51.770Z,80.02
2018-12-13T09:21:27.657Z,79.68
2018-12-13T09:23:59.099Z,77.89
2018-12-13T09:26:30.143Z,77.26
2018-12-13T09:29:00.847Z,76.95
2018-12-13T09:31:31.891Z,77.08
2018-12-13T09:34:02.995Z,76.75
2018-12-13T09:36:33.915Z,75.59
2018-12-13T09:39:06.698Z,75.54
2018-12-13T09:41:38.083Z,73.47
2018-12-13T09:44:14.355Z,72.37
2018-12-13T09:46:46.401Z,72.52
2018-12-13T09:49:18.127Z,71.21
2018-12-13T09:51:49.183Z,72.37
2018-12-13T09:54:20.872Z,71.71
2018-12-13T09:56:51.997Z,68.66
2018-12-13T09:59:22.840Z,70.38
2018-12-13T10:01:54.179Z,70.20
2018-12-13T10:04:28.004Z,64.49
2018-12-13T10:06:59.371Z,63.47
2018-12-13T10:09:30.315Z,68.40
2018-12-13T10:12:01.120Z,63.11
2018-12-13T10:14:32.111Z,60.79
2018-12-13T10:17:03.315Z,60.76
2018-12-13T10:19:36.823Z,61.94
2018-12-13T10:22:11.843Z,63.35
2018-12-13T10:24:43.436Z,58.68
2018-12-13T10:27:14.259Z,57.21
2018-12-13T10:29:45.186Z,60.24
2018-12-13T10:32:16.075Z,55.08
2018-12-13T10:34:47.291Z,56.00
2018-12-13T10:37:19.000Z,57.24
2018-12-13T10:39:50.170Z,60.55
2018-12-13T10:42:20.995Z,54.97
2018-12-13T10:44:52.031Z,55.95
2018-12-13T10:47:22.900Z,62.79
2018-12-13T10:52:25.588Z,55.76
2018-12-13T10:54:56.544Z,53.50
2018-12-13T10:57:27.503Z,52.21
2018-12-13T11:00:01.268Z,55.44
2018-12-13T11:05:43.215Z,56.91
2018-12-13T11:08:16.771Z,54.67
2018-12-13T11:10:48.130Z,55.48
2018-12-13T11:13:19.004Z,56.17
2018-12-13T11:15:49.707Z,56.65
2018-12-13T11:18:20.715Z,55.12
2018-12-13T11:20:51.440Z,56.33
2018-12-13T11:23:22.697Z,55.26
2018-12-13T11:25:56.158Z,56.99
2018-12-13T11:28:43.351Z,54.93
2018-12-13T11:31:14.905Z,56.10
2018-12-13T11:33:45.914Z,57.07
2018-12-13T11:36:17.247Z,57.52
2018-12-13T11:38:48.611Z,57.09
2018-12-13T11:41:19.737Z,56.17
2018-12-13T11:43:50.703Z,56.05
2018-12-13T11:46:21.736Z,59.23
2018-12-13T11:48:52.775Z,57.62
2018-12-13T11:51:23.607Z,57.60
2018-12-13T11:53:54.795Z,57.16
2018-12-13T11:56:25.802Z,59.27
2018-12-13T11:58:56.844Z,57.76
2018-12-13T12:01:27.991Z,58.16
2018-12-13T12:03:58.891Z,58.27
2018-12-13T12:06:32.726Z,56.79
2018-12-13T12:09:12.230Z,57.84
2018-12-13T12:11:40.325Z,58.04
2018-12-13T12:14:11.365Z,58.58
2018-12-13T12:16:42.707Z,56.30
2018-12-13T12:19:13.664Z,57.11
2018-12-13T12:21:45.388Z,55.15
2018-12-13T12:24:16.869Z,55.14
2018-12-13T12:26:51.512Z,56.06
2018-12-13T12:29:25.528Z,56.34
2018-12-13T12:31:59.297Z,54.75
2018-12-13T12:34:28.576Z,53.90
2018-12-13T12:36:59.591Z,55.29
2018-12-13T12:39:31.317Z,54.09
2018-12-13T12:42:02.157Z,55.12
2018-12-13T12:44:37.979Z,53.68
2018-12-13T12:47:09.948Z,52.89
2018-12-13T12:49:40.867Z,54.73
2018-12-13T12:52:14.963Z,54.90
2018-12-13T12:54:48.476Z,55.06
2018-12-13T12:57:18.015Z,55.12
2018-12-13T12:59:49.091Z,55.03
2018-12-13T13:02:20.026Z,53.52
2018-12-13T13:04:51.120Z,55.25
2018-12-13T13:09:55.848Z,54.50
2018-12-13T13:12:29.711Z,55.38
2018-12-13T13:15:00.939Z,55.67
2018-12-13T13:17:32.159Z,56.62
2018-12-13T13:20:05.998Z,54.52
2018-12-13T13:22:37.453Z,55.97
2018-12-13T13:25:08.623Z,56.81
2018-12-13T13:27:39.681Z,53.35
2018-12-13T13:30:10.507Z,54.10
2018-12-13T13:32:41.288Z,53.82
2018-12-13T13:35:12.302Z,54.89
2018-12-13T13:37:43.268Z,57.22
2018-12-13T13:40:14.383Z,55.02
2018-12-13T13:42:45.550Z,54.17
2018-12-13T13:45:16.822Z,56.58
2018-12-13T13:47:48.502Z,54.03
2018-12-13T13:50:19.559Z,55.74
2018-12-13T13:52:50.467Z,53.41
2018-12-13T13:55:24.029Z,53.39
2018-12-13T13:57:55.043Z,56.02
2018-12-13T14:00:26.296Z,52.11
2018-12-13T14:02:57.076Z,52.62
2018-12-13T14:05:28.282Z,52.89
2018-12-13T14:07:59.249Z,52.08
2018-12-13T14:18:03.439Z,54.51
2018-12-13T14:20:32.687Z,53.51
2018-12-13T14:23:04.215Z,52.71
2018-12-13T14:25:38.480Z,56.02
2018-12-13T14:28:07.783Z,58.60
2018-12-13T14:30:38.764Z,53.35
2018-12-13T14:33:10.000Z,54.33
2018-12-13T14:35:41.299Z,54.74
2018-12-13T14:38:14.976Z,54.76
2018-12-13T14:40:46.446Z,55.23
2018-12-13T14:43:17.323Z,55.48
2018-12-13T14:45:48.467Z,54.70
2018-12-13T14:48:19.381Z,54.86
2018-12-13T14:50:50.263Z,54.32
2018-12-13T14:53:21.411Z,55.04
2018-12-13T14:55:50.707Z,55.63
2018-12-13T14:58:21.753Z,56.53
2018-12-13T15:00:52.899Z,55.41
2018-12-13T15:03:23.630Z,57.39
2018-12-13T15:05:54.655Z,55.96
2018-12-13T15:08:25.783Z,56.84
2018-12-13T15:10:56.889Z,56.76
2018-12-13T15:13:28.133Z,56.81
2018-12-13T15:15:58.862Z,57.23
2018-12-13T15:18:32.610Z,55.65
2018-12-13T15:21:03.952Z,57.40
2018-12-13T15:23:37.500Z,57.27
2018-12-13T15:26:08.648Z,57.01
2018-12-13T15:28:42.424Z,57.54
2018-12-13T15:31:13.791Z,56.76
2018-12-13T15:33:47.166Z,56.76
2018-12-13T15:36:16.696Z,59.20
2018-12-13T15:38:47.428Z,57.23
2018-12-13T15:41:18.683Z,60.17
2018-12-13T15:43:49.742Z,57.82
2018-12-13T15:46:20.587Z,57.65
2018-12-13T15:48:54.294Z,59.09
2018-12-13T15:51:27.655Z,58.67
2018-12-13T15:53:59.237Z,58.66
2018-12-13T15:56:30.414Z,60.06
2018-12-13T15:59:01.245Z,59.39
2018-12-13T16:01:32.650Z,59.44
2018-12-13T16:04:03.863Z,60.07
2018-12-13T16:06:34.932Z,60.57
2018-12-13T16:09:07.194Z,59.85
2018-12-13T16:11:38.950Z,60.15
2018-12-13T16:14:09.774Z,59.87
2018-12-13T16:16:43.403Z,59.71
2018-12-13T16:26:49.883Z,59.42
2018-12-13T16:29:19.099Z,58.30
2018-12-13T16:31:49.962Z,61.46
2018-12-13T16:34:20.820Z,58.80
2018-12-13T16:36:51.735Z,59.43
2018-12-13T16:39:25.278Z,58.15
2018-12-13T16:41:54.928Z,57.19
2018-12-13T16:44:29.119Z,57.59
2018-12-13T16:47:01.236Z,58.10
2018-12-13T16:49:32.774Z,57.79
2018-12-13T16:52:06.547Z,57.90
2018-12-13T16:54:38.019Z,57.54
2018-12-13T16:57:08.876Z,57.93
2018-12-13T16:59:40.119Z,58.50
2018-12-13T17:02:11.187Z,57.63
2018-12-13T17:04:44.677Z,58.37
2018-12-13T17:07:16.084Z,57.75
2018-12-13T17:09:46.877Z,58.69
2018-12-13T17:12:18.127Z,59.26
2018-12-13T17:14:51.451Z,58.62
2018-12-13T17:17:23.102Z,59.32
2018-12-13T17:19:54.018Z,58.56
2018-12-13T17:22:25.286Z,59.35
2018-12-13T17:24:56.055Z,60.11
2018-12-13T17:27:27.285Z,57.76
2018-12-13T17:29:58.151Z,59.04
2018-12-13T17:32:28.943Z,60.85
2018-12-13T17:35:03.032Z,58.89
2018-12-13T17:37:34.284Z,58.81
2018-12-13T17:40:08.047Z,59.49
2018-12-13T17:42:39.416Z,60.75
2018-12-13T17:45:09.291Z,60.41
2018-12-13T17:47:40.307Z,61.36
2018-12-13T17:50:13.853Z,58.50
2018-12-13T17:52:45.075Z,59.07
2018-12-13T17:55:18.939Z,59.37
2018-12-13T17:57:52.795Z,59.29
2018-12-13T18:00:24.404Z,60.06
2018-12-13T18:02:58.029Z,59.80
2018-12-13T18:05:32.180Z,58.14
2018-12-13T18:08:05.631Z,60.27
2018-12-13T18:10:37.313Z,59.42
2018-12-13T18:13:08.364Z,58.88
2018-12-13T18:15:39.252Z,59.01
2018-12-13T18:18:10.427Z,58.71
2018-12-13T18:20:41.429Z,59.47
2018-12-13T18:23:12.667Z,60.13
2018-12-13T18:25:43.789Z,58.47
2018-12-13T18:33:15.411Z,58.96
2018-12-13T18:35:46.562Z,59.18
2018-12-13T18:38:17.826Z,59.60
2018-12-13T18:40:49.518Z,60.66
2018-12-13T18:43:23.383Z,59.98
2018-12-13T18:45:52.779Z,58.85
2018-12-13T18:48:26.275Z,60.36
2018-12-13T18:50:57.664Z,59.23
2018-12-13T18:53:28.734Z,59.11
2018-12-13T18:55:59.595Z,59.55
2018-12-13T18:58:30.692Z,58.99
2018-12-13T19:01:01.612Z,59.03
2018-12-13T19:03:32.395Z,59.25
2018-12-13T19:06:03.614Z,58.38
2018-12-13T19:08:35.178Z,58.85
2018-12-13T19:11:07.040Z,58.69
2018-12-13T19:13:38.076Z,59.18
2018-12-13T19:16:12.343Z,58.30
2018-12-13T19:18:44.180Z,58.81
2018-12-13T19:21:15.659Z,59.14
2018-12-13T19:23:46.673Z,60.42
2018-12-13T19:26:22.150Z,58.93
2018-12-13T19:28:53.528Z,59.26
2018-12-13T19:33:56.496Z,58.73
2018-12-13T19:36:27.837Z,60.23
2018-12-13T19:38:58.976Z,58.64
2018-12-13T19:41:29.882Z,59.41
2018-12-13T19:44:03.860Z,59.47
2018-12-13T19:46:34.881Z,59.04
2018-12-13T19:49:06.226Z,58.67
2018-12-13T19:51:37.235Z,59.01
2018-12-13T19:54:08.554Z,59.84
2018-12-13T19:56:40.023Z,58.97
2018-12-13T19:59:11.221Z,58.90
2018-12-13T20:01:42.073Z,58.63
2018-12-13T20:04:13.657Z,59.92
2018-12-13T20:06:45.206Z,59.47
2018-12-13T20:09:16.735Z,58.62
2018-12-13T20:11:50.079Z,60.34
2018-12-13T20:14:24.084Z,59.21
2018-12-13T20:16:55.579Z,59.76
2018-12-13T20:19:26.565Z,60.65
2018-12-13T20:21:57.810Z,59.63
2018-12-13T20:24:30.562Z,60.09
2018-12-13T20:27:01.916Z,60.05
2018-12-13T20:29:35.641Z,60.58
2018-12-13T20:34:39.358Z,60.68
2018-12-13T20:37:11.848Z,60.44
2018-12-13T20:39:43.247Z,60.91
2018-12-13T20:42:14.389Z,60.18
2018-12-13T20:44:45.222Z,59.61
2018-12-13T20:47:18.897Z,60.41
2018-12-13T20:49:50.399Z,59.45
2018-12-13T20:52:21.151Z,60.33
2018-12-13T20:54:52.099Z,60.34
2018-12-13T20:57:23.232Z,60.46
2018-12-13T20:59:54.621Z,60.13
2018-12-13T21:02:28.128Z,60.31
2018-12-13T21:04:59.339Z,60.57
2018-12-13T21:07:33.782Z,62.24
2018-12-13T21:10:08.732Z,61.98
2018-12-13T21:12:39.783Z,60.78
2018-12-13T21:15:10.734Z,61.35
2018-12-13T21:17:41.792Z,60.92
2018-12-13T21:20:15.399Z,61.10
2018-12-13T21:22:48.599Z,60.68
2018-12-13T21:25:22.664Z,61.14
2018-12-13T21:27:54.004Z,60.49
2018-12-13T21:30:24.940Z,60.58
2018-12-13T21:35:27.556Z,61.54
2018-12-13T21:37:58.713Z,61.75
2018-12-13T21:40:34.155Z,61.54
2018-12-13T21:43:05.563Z,61.99
2018-12-13T21:45:39.211Z,61.42
2018-12-13T21:48:10.615Z,61.34
2018-12-13T21:50:41.904Z,62.53
2018-12-13T21:53:12.789Z,63.42
2018-12-13T21:55:43.851Z,61.64
2018-12-13T21:58:14.664Z,61.86
2018-12-13T22:00:45.882Z,62.14
2018-12-13T22:03:16.883Z,62.09
2018-12-13T22:05:48.038Z,61.99
2018-12-13T22:08:19.115Z,61.84
2018-12-13T22:10:50.163Z,62.63
2018-12-13T22:13:21.293Z,61.75
2018-12-13T22:15:54.823Z,61.14
2018-12-13T22:18:26.610Z,60.52
2018-12-13T22:20:57.438Z,61.49
2018-12-13T22:23:28.251Z,61.25
2018-12-13T22:25:59.494Z,61.17
2018-12-13T22:28:30.456Z,62.11
2018-12-13T22:31:01.570Z,61.97
2018-12-13T22:36:02.227Z,61.04
2018-12-13T22:38:33.300Z,61.27
2018-12-13T22:41:04.691Z,59.74
2018-12-13T22:43:38.499Z,61.30
2018-12-13T22:46:10.431Z,59.92
2018-12-13T22:48:44.130Z,59.93
2018-12-13T22:51:15.579Z,59.66
2018-12-13T22:53:46.825Z,60.27
2018-12-13T22:56:17.783Z,60.77
2018-12-13T22:58:48.954Z,61.09
2018-12-13T23:01:20.135Z,59.90
2018-12-13T23:03:51.898Z,60.79
2018-12-13T23:06:23.124Z,60.17
2018-12-13T23:08:56.756Z,60.37
2018-12-13T23:11:32.669Z,61.06
2018-12-13T23:14:01.640Z,60.89
2018-12-13T23:16:32.679Z,60.40
2018-12-13T23:19:03.631Z,60.87
2018-12-13T23:21:34.491Z,61.17
2018-12-13T23:24:05.544Z,61.65
2018-12-13T23:26:34.767Z,61.67
2018-12-13T23:29:05.553Z,61.67
2018-12-13T23:31:36.699Z,61.35
2018-12-13T23:34:07.775Z,61.04
2018-12-13T23:36:38.811Z,61.65
2018-12-13T23:39:09.727Z,60.60
2018-12-13T23:41:40.876Z,62.06
2018-12-13T23:44:14.183Z,62.21
2018-12-13T23:46:47.733Z,61.71
2018-12-13T23:49:18.479Z,61.25
2018-12-13T23:51:49.527Z,61.39
2018-12-13T23:54:21.209Z,61.30
2018-12-13T23:56:52.846Z,60.88
2018-12-13T23:59:23.724Z,60.87
